Latest Weather Observations for Yarram Airport

IDV60801

Issued at 12:31 pm EST Tuesday 7 July 2015 (issued every 30 minutes, with the page automatically refreshed every 10 minutes)

About weather observations | Map of weather stations | Latest weather observations for VIC | Other Formats
Station Details ID: 085151 Name: YARRAM AIRPORT Lat: -38.56 Lon: 146.75 Height: 17.9 m
Data from the previous 72 hours. | See also: Recent months at Yarram Airport
Date/Time
EST
Temp
°C
App
Temp
°C
Dew
Point
Rel
Hum
%
Delta-T
°C
Wind Press
QNH
hPa
Press
MSL
hPa
Rain
since 9 am
mm
Dir
 
Spd
km/h
Gust
km/h
Spd
kts
Gust
kts
07/12:30pm 11.0 8.5 8.2 83 1.4 ESE 11 15 6 8 1023.7 1023.8 0.0
07/12:00pm 10.9 8.4 8.3 84 1.3 ESE 11 15 6 8 1023.9 1024.0 0.0
07/11:30am 10.2 8.0 7.8 85 1.2 ENE 9 13 5 7 1024.1 1024.2 0.0
07/11:00am 10.2 7.8 8.5 89 0.8 ESE 11 17 6 9 1024.1 1024.2 0.0
07/10:30am 9.5 6.7 8.7 95 0.4 ESE 13 20 7 11 1024.0 1024.1 0.0
07/10:00am 9.5 7.7 9.5 100 0.0 ESE 9 15 5 8 1023.8 1023.9 0.0
07/09:30am 8.9 7.5 8.9 100 0.0 S 6 7 3 4 1023.4 1023.5 0.0
07/09:00am 8.8 7.2 8.8 100 0.0 S 7 9 4 5 1023.2 1023.3 8.6
07/08:30am 8.7 7.3 8.7 100 0.0 S 6 7 3 4 1022.8 1022.9 8.0
07/08:00am 8.5 7.0 8.5 100 0.0 SSE 6 7 3 4 1022.6 1022.7 7.4
07/07:30am 8.4 6.9 8.4 100 0.0 W 6 7 3 4 1022.2 1022.3 7.4
07/07:00am 8.4 6.9 8.4 100 0.0 NW 6 7 3 4 1021.7 1021.8 7.4
07/06:30am 8.4 5.9 8.4 100 0.0 NNW 11 11 6 6 1021.2 1021.3 7.4
07/06:00am 8.4 7.3 8.4 100 0.0 ESE 4 7 2 4 1020.9 1021.0 7.4
07/05:30am 8.4 6.9 8.4 100 0.0 E 6 7 3 4 1020.6 1020.7 7.4
07/05:00am 8.4 6.3 8.4 100 0.0 ESE 9 11 5 6 1020.3 1020.4 7.0
07/04:30am 8.4 6.7 8.4 100 0.0 E 7 9 4 5 1019.9 1020.0 7.0
07/04:00am 8.3 6.8 8.3 100 0.0 E 6 7 3 4 1019.8 1019.9 7.0
07/03:30am 8.3 7.9 8.3 100 0.0 CALM 0 0 0 0 1019.5 1019.6 7.0
07/03:00am 8.2 7.8 8.2 100 0.0 CALM 0 0 0 0 1019.7 1019.8 7.0
07/02:30am 8.3 7.9 8.3 100 0.0 CALM 0 0 0 0 1019.5 1019.6 7.0
07/02:00am 8.3 7.9 8.3 100 0.0 CALM 0 0 0 0 1019.1 1019.2 7.0
07/01:30am 8.3 7.9 8.3 100 0.0 CALM 0 0 0 0 1018.9 1019.0 7.0
07/01:00am 8.4 8.0 8.4 100 0.0 CALM 0 0 0 0 1018.8 1018.9 6.8
07/12:30am 8.4 8.0 8.4 100 0.0 CALM 0 0 0 0 1018.6 1018.7 6.6
07/12:00am 8.4 8.0 8.3 99 0.0 CALM 0 0 0 0 1018.5 1018.6 6.2
 
Date/Time
EST
Temp
°C
App
Temp
°C
Dew
Point
Rel
Hum
%
Delta-T
°C
Wind Press
QNH
hPa
Press
MSL
hPa
Rain
since 9 am
mm
Dir
 
Spd
km/h
Gust
km/h
Spd
kts
Gust
kts
06/11:30pm 8.4 8.0 8.3 99 0.0 CALM 0 0 0 0 1018.5 1018.6 5.2
06/11:00pm 8.5 8.1 8.4 99 0.0 CALM 0 0 0 0 1018.4 1018.5 4.4
06/10:30pm 8.6 8.3 8.5 99 0.0 CALM 0 0 0 0 1018.3 1018.4 3.6
06/10:00pm 8.7 8.3 8.4 98 0.1 CALM 0 0 0 0 1018.1 1018.2 2.6
06/09:30pm 8.7 8.3 8.4 98 0.1 CALM 0 0 0 0 1017.8 1017.9 2.2
06/09:00pm 8.9 8.6 8.6 98 0.1 CALM 0 0 0 0 1017.6 1017.7 2.0
06/08:30pm 8.9 7.4 8.5 97 0.2 SSE 6 7 3 4 1017.3 1017.4 1.8
06/08:00pm 9.2 7.1 8.4 95 0.4 SE 9 11 5 6 1017.1 1017.2 1.2
06/07:30pm 9.5 7.7 8.1 91 0.7 W 7 9 4 5 1016.7 1016.8 0.8
06/07:00pm 9.5 9.1 8.3 92 0.6 CALM 0 0 0 0 1016.5 1016.6 0.2
06/06:30pm 9.6 8.0 8.0 90 0.8 S 6 7 3 4 1016.0 1016.1 0.2
06/06:00pm 10.3 8.2 8.1 86 1.1 WSW 9 9 5 5 1015.8 1015.9 0.0
06/05:30pm 11.3 8.2 7.4 77 1.9 WSW 13 17 7 9 1015.3 1015.4 0.0
06/05:00pm 11.9 7.6 6.8 71 2.4 W 19 24 10 13 1014.8 1014.9 0.0
06/04:30pm 11.8 8.4 7.5 75 2.1 WSW 15 19 8 10 1014.4 1014.5 0.0
06/04:00pm 11.8 9.4 8.5 80 1.6 SW 11 13 6 7 1014.2 1014.3 0.0
06/03:30pm 12.2 9.6 7.9 75 2.1 W 11 15 6 8 1013.9 1014.0 0.0
06/03:00pm 12.5 9.2 8.0 74 2.2 W 15 19 8 10 1013.7 1013.8 0.0
06/02:30pm 12.7 8.3 7.4 70 2.6 WNW 20 30 11 16 1013.5 1013.6 0.0
06/02:00pm 12.9 7.6 6.9 67 2.9 W 24 32 13 17 1013.5 1013.6 0.0
06/01:30pm 13.6 8.4 7.2 65 3.1 WNW 24 30 13 16 1013.6 1013.7 0.0
06/01:00pm 13.2 6.7 6.5 64 3.2 WNW 30 43 16 23 1013.5 1013.6 0.0
06/12:57pm 13.3 7.2 6.4 63 3.3 WNW 28 43 15 23 1013.5 1013.6 0.0
06/12:30pm 13.3 9.5 7.5 68 2.8 WNW 17 24 9 13 1013.8 1013.9 0.0
06/12:00pm 13.4 8.9 7.0 65 3.1 WNW 20 30 11 16 1014.0 1014.1 0.0
06/11:30am 13.0 9.1 7.0 67 2.9 WNW 17 22 9 12 1014.3 1014.4 0.0
06/11:00am 13.0 8.7 6.8 66 3.0 WNW 19 26 10 14 1014.5 1014.6 0.0
06/10:30am 12.3 7.8 6.1 66 2.9 NW 19 24 10 13 1014.6 1014.7 0.0
06/10:00am 12.0 7.8 5.9 66 2.9 NW 17 22 9 12 1014.5 1014.6 0.0
06/09:30am 11.7 8.4 6.4 70 2.5 NW 13 15 7 8 1014.6 1014.7 0.0
06/09:00am 11.6 9.0 6.1 69 2.6 WNW 9 11 5 6 1014.4 1014.5 0.0
06/08:30am 11.4 9.1 5.9 69 2.6 NW 7 11 4 6 1014.3 1014.4 0.0
06/08:00am 10.5 9.5 5.7 72 2.2 CALM 0 0 0 0 1014.2 1014.3 0.0
06/07:30am 10.1 7.8 5.9 75 1.9 SE 7 13 4 7 1014.2 1014.3 0.0
06/07:00am 10.6 8.2 5.2 69 2.5 W 7 11 4 6 1014.0 1014.1 0.0
06/06:30am 11.7 8.1 5.1 64 3.0 NW 13 17 7 9 1013.7 1013.8 0.0
06/06:00am 11.8 7.8 4.8 62 3.2 WNW 15 20 8 11 1013.7 1013.8 0.0
06/05:30am 12.2 7.8 4.7 60 3.4 WNW 17 26 9 14 1013.9 1014.0 0.0
06/05:00am 12.0 7.6 4.7 61 3.3 WNW 17 24 9 13 1014.0 1014.1 0.0
06/04:30am 11.2 8.0 4.9 65 2.9 NW 11 15 6 8 1014.0 1014.1 0.0
06/04:00am 11.5 8.2 4.5 62 3.2 NNW 11 15 6 8 1014.0 1014.1 0.0
06/03:30am 11.0 7.7 4.7 65 2.8 NW 11 15 6 8 1014.2 1014.3 0.0
06/03:00am 11.8 7.7 4.5 61 3.3 WNW 15 24 8 13 1014.4 1014.5 0.0
06/02:30am 12.0 7.2 4.5 60 3.4 WNW 19 26 10 14 1014.6 1014.7 0.0
06/02:00am 11.6 7.5 4.6 62 3.2 NW 15 20 8 11 1014.7 1014.8 0.0
06/01:30am 10.8 7.9 4.5 65 2.8 NW 9 13 5 7 1014.8 1014.9 0.0
06/01:00am 10.4 7.1 4.8 68 2.5 NW 11 15 6 8 1015.1 1015.2 0.0
06/12:30am 10.7 7.0 4.6 66 2.7 NNW 13 15 7 8 1015.5 1015.6 0.0
06/12:00am 9.6 5.9 4.6 71 2.2 NW 13 17 7 9 1015.7 1015.8 0.0
 
Date/Time
EST
Temp
°C
App
Temp
°C
Dew
Point
Rel
Hum
%
Delta-T
°C
Wind Press
QNH
hPa
Press
MSL
hPa
Rain
since 9 am
mm
Dir
 
Spd
km/h
Gust
km/h
Spd
kts
Gust
kts
05/11:30pm 9.7 5.3 4.7 71 2.2 NW 17 20 9 11 1015.7 1015.8 0.0
05/11:00pm 10.3 5.3 4.7 68 2.5 NW 20 26 11 14 1015.7 1015.8 0.0
05/10:30pm 10.5 5.7 4.6 67 2.6 NW 19 26 10 14 1015.9 1016.0 0.0
05/10:00pm 11.2 7.2 4.7 64 2.9 NW 15 19 8 10 1015.9 1016.0 0.0
05/09:30pm 11.4 7.1 5.1 65 2.9 NW 17 20 9 11 1016.0 1016.1 0.0
05/09:00pm 11.3 7.5 5.6 68 2.6 NW 15 20 8 11 1016.1 1016.2 0.0
05/08:30pm 11.4 7.6 5.7 68 2.6 NW 15 19 8 10 1016.3 1016.4 0.0
05/08:00pm 11.3 7.5 6.0 70 2.5 NW 15 20 8 11 1016.3 1016.4 0.0
05/07:30pm 11.7 7.6 6.0 68 2.7 NW 17 24 9 13 1016.3 1016.4 0.0
05/07:00pm 11.7 7.6 6.2 69 2.6 NW 17 22 9 12 1016.4 1016.5 0.0
05/06:30pm 10.9 7.6 6.6 75 2.0 NNW 13 17 7 9 1016.3 1016.4 0.0
05/06:00pm 10.7 8.1 6.1 73 2.1 NNW 9 13 5 7 1016.4 1016.5 0.0
05/05:30pm 10.9 7.9 5.9 71 2.3 NW 11 19 6 10 1016.3 1016.4 0.0
05/05:00pm 11.8 7.8 6.5 70 2.5 NW 17 22 9 12 1016.1 1016.2 0.0
05/04:30pm 13.3 10.3 7.5 68 2.8 NW 13 15 7 8 1016.1 1016.2 0.0
05/04:00pm 13.8 10.0 7.6 66 3.0 NW 17 30 9 16 1016.2 1016.3 0.0
05/03:30pm 15.0 10.8 7.3 60 3.8 NW 19 28 10 15 1016.2 1016.3 0.0
05/03:00pm 15.3 10.9 7.3 59 3.9 WNW 20 28 11 15 1016.2 1016.3 0.0
05/02:30pm 15.4 10.6 7.2 58 4.0 WNW 22 32 12 17 1016.1 1016.2 0.0
05/02:00pm 15.2 9.9 7.0 58 4.0 WNW 24 33 13 18 1016.3 1016.4 0.0
05/01:30pm 15.2 9.6 7.2 59 3.9 WNW 26 39 14 21 1016.4 1016.5 0.0
05/01:00pm 14.9 8.8 6.7 58 4.0 WNW 28 39 15 21 1016.7 1016.8 0.0
05/12:30pm 14.8 8.9 7.6 62 3.6 WNW 28 39 15 21 1017.1 1017.2 0.0
05/12:00pm 14.8 10.3 7.1 60 3.8 WNW 20 30 11 16 1017.5 1017.6 0.0
05/11:30am 14.0 8.4 7.1 63 3.4 NW 26 37 14 20 1017.9 1018.0 0.0
05/11:00am 13.9 7.9 7.0 63 3.3 WNW 28 41 15 22 1018.4 1018.5 0.0
05/10:30am 13.6 9.2 7.6 67 2.9 WNW 20 32 11 17 1018.5 1018.6 0.0
05/10:00am 13.0 7.9 7.5 69 2.7 NW 24 32 13 17 1018.6 1018.7 0.0
05/09:30am 12.1 6.8 6.8 70 2.5 NW 24 32 13 17 1018.5 1018.6 0.0
05/09:00am 11.4 6.8 6.5 72 2.3 NW 20 26 11 14 1018.4 1018.5 0.0
05/08:30am 11.2 7.2 6.5 73 2.2 WNW 17 24 9 13 1018.4 1018.5 0.0
05/08:00am 10.6 6.2 6.7 77 1.8 NW 19 32 10 17 1018.2 1018.3 0.0
05/07:30am 7.5 5.8 5.8 89 0.8 NNW 4 9 2 5 1018.3 1018.4 0.0
05/07:00am 8.0 5.4 6.1 88 0.9 W 9 11 5 6 1018.4 1018.5 0.0
05/06:30am 8.2 6.0 6.0 86 1.0 WSW 7 9 4 5 1018.5 1018.6 0.0
05/06:00am 9.6 7.1 6.5 81 1.4 W 9 11 5 6 1018.3 1018.4 0.0
05/05:30am 9.7 6.1 6.6 81 1.4 NW 15 20 8 11 1018.1 1018.2 0.0
05/05:00am 10.2 5.7 6.9 80 1.6 NW 20 26 11 14 1018.1 1018.2 0.0
05/04:30am 9.5 7.4 6.6 82 1.4 W 7 11 4 6 1018.3 1018.4 0.0
05/04:00am 10.4 6.5 6.9 79 1.6 NW 17 22 9 12 1018.2 1018.3 0.0
05/03:30am 10.1 6.9 7.0 81 1.5 NW 13 20 7 11 1018.5 1018.6 0.0
05/03:00am 9.9 7.8 6.6 80 1.5 W 7 11 4 6 1018.7 1018.8 0.0
05/02:30am 10.6 6.6 6.7 77 1.8 WNW 17 26 9 14 1018.8 1018.9 0.0
05/02:00am 10.5 7.4 7.4 81 1.5 WNW 13 22 7 12 1018.9 1019.0 0.0
05/01:30am 10.8 7.4 7.7 81 1.5 WNW 15 19 8 10 1018.9 1019.0 0.0
05/01:00am 10.2 7.1 7.4 83 1.3 NW 13 17 7 9 1019.1 1019.2 0.0
05/12:30am 9.5 7.1 6.9 84 1.2 WNW 9 13 5 7 1019.2 1019.3 0.0
05/12:00am 9.9 6.8 7.2 83 1.3 WNW 13 17 7 9 1019.5 1019.6 0.0
 
Date/Time
EST
Temp
°C
App
Temp
°C
Dew
Point
Rel
Hum
%
Delta-T
°C
Wind Press
QNH
hPa
Press
MSL
hPa
Rain
since 9 am
mm
Dir
 
Spd
km/h
Gust
km/h
Spd
kts
Gust
kts
04/11:30pm 10.4 7.0 7.5 82 1.4 WNW 15 19 8 10 1019.5 1019.6 0.0
04/11:00pm 10.6 6.8 7.7 82 1.4 WNW 17 20 9 11 1019.4 1019.5 0.0
04/10:30pm 11.0 6.3 7.7 80 1.6 WNW 22 28 12 15 1019.4 1019.5 0.0
04/10:00pm 10.5 6.7 7.7 83 1.3 NW 17 22 9 12 1019.6 1019.7 0.0
04/09:30pm 10.7 6.3 7.6 81 1.5 WNW 20 28 11 15 1019.6 1019.7 0.0
04/09:00pm 10.3 6.5 7.7 84 1.2 WNW 17 20 9 11 1019.8 1019.9 0.0
04/08:30pm 10.3 5.9 7.4 82 1.4 NW 20 28 11 15 1019.9 1020.0 0.0
04/08:00pm 9.6 6.2 7.5 87 1.0 NW 15 20 8 11 1019.8 1019.9 0.0
04/07:30pm 9.7 5.9 7.6 87 1.0 NW 17 24 9 13 1019.8 1019.9 0.0
04/07:00pm 9.4 6.3 7.3 87 1.0 NW 13 17 7 9 1019.7 1019.8 0.0
04/06:30pm 10.0 7.4 7.8 86 1.1 NW 11 15 6 8 1019.6 1019.7 0.0
04/06:00pm 10.4 6.3 8.0 85 1.2 NW 19 24 10 13 1019.2 1019.3 0.0
04/05:30pm 10.7 5.6 7.8 82 1.4 WNW 24 33 13 18 1019.1 1019.2 0.0
04/05:00pm 11.3 5.9 8.0 80 1.6 WNW 26 35 14 19 1019.1 1019.2 0.0
04/04:30pm 11.7 7.1 8.2 79 1.7 WNW 22 32 12 17 1019.2 1019.3 0.0
04/04:00pm 12.2 6.9 8.3 77 1.9 WNW 26 39 14 21 1019.0 1019.1 0.0
04/03:30pm 12.8 6.8 8.7 76 2.1 WNW 30 39 16 21 1018.8 1018.9 0.0
04/03:00pm 12.1 5.0 8.2 77 1.9 WNW 35 48 19 26 1018.5 1018.6 0.0
04/02:30pm 11.9 5.5 8.4 79 1.7 WNW 32 43 17 23 1018.3 1018.4 0.0
04/02:00pm 11.8 4.8 8.3 79 1.7 WNW 35 48 19 26 1018.3 1018.4 0.0
04/01:30pm 12.1 3.9 8.2 77 1.9 WNW 41 56 22 30 1018.1 1018.2 0.0
04/01:00pm 12.5 4.8 8.6 77 1.9 WNW 39 54 21 29 1018.1 1018.2 0.0
04/12:44pm 12.1 5.1 8.4 78 1.8 WNW 35 56 19 30 1018.3 1018.4 0.0

Other Formats:

Comma delimited format used in spreadsheet applications
http://www.bom.gov.au/fwo/IDV60801/IDV60801.95890.axf

JavaScript Object Notation format (JSON) in row-major order
http://www.bom.gov.au/fwo/IDV60801/IDV60801.95890.json